createdAt,value
2017-07-21T00:00:36.720Z,67.50
2017-07-21T00:03:04.211Z,67.80
2017-07-21T00:05:31.743Z,67.70
2017-07-21T00:08:00.019Z,67.50
2017-07-21T00:10:27.553Z,67.40
2017-07-21T00:12:56.262Z,67.70
2017-07-21T00:15:23.754Z,67.90
2017-07-21T00:17:51.288Z,67.90
2017-07-21T00:20:18.793Z,68.00
2017-07-21T00:22:46.324Z,67.90
2017-07-21T00:25:13.843Z,68.20
2017-07-21T00:27:41.363Z,68.20
2017-07-21T00:30:09.279Z,68.00
2017-07-21T00:32:36.808Z,68.00
2017-07-21T00:35:04.302Z,68.40
2017-07-21T00:37:32.599Z,68.30
2017-07-21T00:40:00.104Z,67.90
2017-07-21T00:42:27.602Z,68.10
2017-07-21T00:44:55.509Z,68.20
2017-07-21T00:47:23.010Z,68.40
2017-07-21T00:49:50.920Z,68.00
2017-07-21T00:52:19.179Z,68.00
2017-07-21T00:54:46.711Z,68.20
2017-07-21T00:57:15.015Z,68.40
2017-07-21T00:59:42.532Z,68.20
2017-07-21T01:02:10.054Z,68.40
2017-07-21T01:04:37.582Z,68.50
2017-07-21T01:07:05.481Z,68.10
2017-07-21T01:09:33.012Z,68.10
2017-07-21T01:12:00.628Z,68.20
2017-07-21T01:14:28.155Z,68.30
2017-07-21T01:16:56.436Z,67.70
2017-07-21T01:19:24.334Z,67.20
2017-07-21T01:21:52.619Z,68.20
2017-07-21T01:24:20.111Z,67.40
2017-07-21T01:26:47.635Z,67.40
2017-07-21T01:29:15.128Z,67.50
2017-07-21T01:31:43.407Z,67.70
2017-07-21T01:34:11.387Z,67.90
2017-07-21T01:36:38.903Z,67.80
2017-07-21T01:39:06.399Z,67.70
2017-07-21T01:41:33.923Z,67.80
2017-07-21T01:44:01.411Z,67.80
2017-07-21T01:46:30.435Z,67.40
2017-07-21T01:48:57.927Z,67.70
2017-07-21T01:51:26.197Z,67.70
2017-07-21T01:53:53.723Z,67.70
2017-07-21T01:56:21.216Z,67.80
2017-07-21T01:58:48.772Z,68.00
2017-07-21T02:01:16.272Z,68.10
2017-07-21T02:03:43.803Z,68.20
2017-07-21T02:06:11.700Z,68.10
2017-07-21T02:08:39.220Z,68.10
2017-07-21T02:11:06.714Z,68.20
2017-07-21T02:13:35.715Z,68.30
2017-07-21T02:16:03.230Z,67.90
2017-07-21T02:18:30.730Z,67.70
2017-07-21T02:20:58.246Z,67.50
2017-07-21T02:23:25.750Z,67.60
2017-07-21T02:25:53.274Z,67.40
2017-07-21T02:28:21.919Z,67.20
2017-07-21T02:30:49.507Z,67.10
2017-07-21T02:33:17.789Z,67.70
2017-07-21T02:35:45.315Z,67.20
2017-07-21T02:38:12.813Z,67.20
2017-07-21T02:40:40.331Z,67.10
2017-07-21T02:43:07.824Z,67.20
2017-07-21T02:45:35.328Z,67.00
2017-07-21T02:48:02.859Z,67.10
2017-07-21T02:50:30.370Z,67.00
2017-07-21T02:52:58.647Z,67.10
2017-07-21T02:55:26.151Z,67.10
2017-07-21T02:57:54.440Z,67.20
2017-07-21T03:00:21.934Z,67.30
2017-07-21T03:05:18.314Z,67.30
2017-07-21T03:07:46.970Z,67.30
2017-07-21T03:10:14.507Z,67.30
2017-07-21T03:12:43.160Z,67.70
2017-07-21T03:15:10.660Z,67.50
2017-07-21T03:17:38.186Z,67.60
2017-07-21T03:20:05.700Z,67.60
2017-07-21T03:22:45.162Z,67.60
2017-07-21T03:25:12.654Z,67.60
2017-07-21T03:27:40.179Z,67.40
2017-07-21T03:30:08.476Z,68.00
2017-07-21T03:32:36.373Z,67.40
2017-07-21T03:35:03.890Z,67.50
2017-07-21T03:37:32.518Z,67.30
2017-07-21T03:40:00.799Z,67.20
2017-07-21T03:42:29.063Z,66.90
2017-07-21T03:44:56.766Z,67.00
2017-07-21T03:47:24.259Z,66.90
2017-07-21T03:49:52.180Z,66.90
2017-07-21T03:52:20.457Z,67.30
2017-07-21T03:54:47.983Z,67.20
2017-07-21T03:57:15.485Z,67.40
2017-07-21T03:59:43.011Z,67.30
2017-07-21T04:02:12.303Z,68.10
2017-07-21T04:04:39.798Z,67.70
2017-07-21T04:07:08.082Z,68.50
2017-07-21T04:12:05.299Z,68.50
2017-07-21T04:14:32.807Z,68.30
2017-07-21T04:17:00.331Z,68.40
2017-07-21T04:19:28.227Z,68.50
2017-07-21T04:21:56.138Z,68.80
2017-07-21T04:24:23.631Z,68.80
2017-07-21T04:26:51.154Z,68.90
2017-07-21T04:29:18.642Z,69.20
2017-07-21T04:31:46.164Z,69.20
2017-07-21T04:34:13.666Z,69.00
2017-07-21T04:36:41.188Z,69.00
2017-07-21T04:39:09.457Z,69.80
2017-07-21T04:41:37.907Z,69.00
2017-07-21T04:44:05.402Z,68.60
2017-07-21T04:46:34.402Z,68.40
2017-07-21T04:49:01.918Z,67.90
2017-07-21T04:51:30.212Z,68.30
2017-07-21T04:53:58.496Z,68.90
2017-07-21T04:56:26.777Z,68.90
2017-07-21T04:58:54.307Z,68.70
2017-07-21T05:01:21.807Z,69.10
2017-07-21T05:03:49.319Z,69.40
2017-07-21T05:06:16.829Z,69.50
2017-07-21T05:08:44.350Z,70.00
2017-07-21T05:11:11.847Z,70.20
2017-07-21T05:13:39.366Z,70.60
2017-07-21T05:16:07.259Z,70.70
2017-07-21T05:18:35.535Z,70.60
2017-07-21T05:21:03.063Z,70.60
2017-07-21T05:23:31.339Z,70.60
2017-07-21T05:25:58.867Z,70.60
2017-07-21T05:28:26.359Z,70.90
2017-07-21T05:30:53.879Z,70.60
2017-07-21T05:33:21.376Z,70.50
2017-07-21T05:35:48.911Z,70.40
2017-07-21T05:38:16.430Z,70.90
2017-07-21T05:40:44.358Z,70.30
2017-07-21T05:43:12.255Z,70.60
2017-07-21T05:45:41.279Z,70.50
2017-07-21T05:48:09.551Z,71.00
2017-07-21T05:50:37.074Z,71.20
2017-07-21T05:53:04.971Z,71.50
2017-07-21T05:55:33.984Z,71.20
2017-07-21T05:58:01.498Z,70.70
2017-07-21T06:00:29.767Z,70.80
2017-07-21T06:02:57.310Z,70.30
2017-07-21T06:05:25.587Z,69.40
2017-07-21T06:07:53.513Z,70.40
2017-07-21T06:10:21.022Z,70.20
2017-07-21T06:12:48.535Z,68.30
2017-07-21T06:15:16.042Z,65.90
2017-07-21T06:17:43.567Z,64.60
2017-07-21T06:20:11.120Z,62.20
2017-07-21T06:22:38.615Z,59.50
2017-07-21T06:25:06.531Z,57.40
2017-07-21T06:27:34.023Z,56.20
2017-07-21T06:30:02.312Z,53.90
2017-07-21T06:32:29.808Z,54.20
2017-07-21T06:34:57.334Z,51.60
2017-07-21T06:37:25.227Z,51.70
2017-07-21T06:39:52.718Z,49.70
2017-07-21T06:42:20.255Z,49.60
2017-07-21T06:44:48.160Z,49.40
2017-07-21T06:47:15.683Z,48.20
2017-07-21T06:49:43.178Z,48.30
2017-07-21T06:52:11.490Z,47.40
2017-07-21T06:54:39.000Z,47.30
2017-07-21T06:57:06.523Z,47.40
2017-07-21T06:59:34.019Z,46.60
2017-07-21T07:02:01.550Z,47.10
2017-07-21T07:04:29.810Z,47.20
2017-07-21T07:06:57.711Z,48.00
2017-07-21T07:09:25.643Z,49.70
2017-07-21T07:11:53.915Z,50.20
2017-07-21T07:14:21.822Z,50.60
2017-07-21T07:16:50.462Z,50.60
2017-07-21T07:19:18.008Z,51.60
2017-07-21T07:21:46.644Z,52.30
2017-07-21T07:24:14.175Z,52.90
2017-07-21T07:26:41.675Z,51.60
2017-07-21T07:29:09.290Z,51.30
2017-07-21T07:31:37.570Z,53.00
2017-07-21T07:36:35.445Z,54.50
2017-07-21T07:39:03.452Z,53.00
2017-07-21T07:41:31.717Z,53.50
2017-07-21T07:44:00.002Z,53.30
2017-07-21T07:46:27.894Z,52.70
2017-07-21T07:48:55.811Z,53.50
2017-07-21T07:51:23.372Z,53.80
2017-07-21T07:53:50.879Z,52.60
2017-07-21T07:56:18.394Z,52.20
2017-07-21T07:58:45.895Z,52.40
2017-07-21T08:01:13.408Z,50.50
2017-07-21T08:03:41.295Z,51.50
2017-07-21T08:06:08.808Z,50.20
2017-07-21T08:08:36.306Z,48.90
2017-07-21T08:11:03.837Z,49.30
2017-07-21T08:13:31.722Z,50.10
2017-07-21T08:16:00.006Z,50.50
2017-07-21T08:18:27.503Z,50.70
2017-07-21T08:20:55.395Z,51.10
2017-07-21T08:23:22.951Z,51.70
2017-07-21T08:25:50.474Z,52.60
2017-07-21T08:28:18.010Z,52.20
2017-07-21T08:30:46.659Z,53.10
2017-07-21T08:33:14.174Z,53.60
2017-07-21T08:35:41.680Z,53.30
2017-07-21T08:38:09.203Z,52.60
2017-07-21T08:40:36.697Z,51.20
2017-07-21T08:43:04.631Z,50.80
2017-07-21T08:45:32.528Z,50.40
2017-07-21T08:48:00.067Z,49.20
2017-07-21T08:50:28.328Z,48.60
2017-07-21T08:52:56.542Z,48.80
2017-07-21T08:55:24.810Z,48.60
2017-07-21T08:57:53.077Z,47.80
2017-07-21T09:00:21.355Z,46.50
2017-07-21T09:02:49.611Z,45.90
2017-07-21T09:05:17.139Z,46.80
2017-07-21T09:07:45.079Z,46.60
2017-07-21T09:10:13.000Z,47.80
2017-07-21T09:12:40.494Z,47.60
2017-07-21T09:15:08.006Z,48.20
2017-07-21T09:17:35.495Z,47.20
2017-07-21T09:20:03.011Z,45.10
2017-07-21T09:22:30.504Z,45.30
2017-07-21T09:24:58.415Z,43.60
2017-07-21T09:27:26.693Z,43.60
2017-07-21T09:29:54.208Z,44.40
2017-07-21T09:32:21.703Z,43.90
2017-07-21T09:34:49.250Z,45.90
2017-07-21T09:37:16.748Z,45.20
2017-07-21T09:39:44.458Z,44.90
2017-07-21T09:42:12.738Z,44.60
2017-07-21T09:44:40.254Z,43.30
2017-07-21T09:47:07.783Z,43.40
2017-07-21T09:49:35.295Z,43.50
2017-07-21T09:54:32.153Z,41.40
2017-07-21T09:57:00.455Z,41.30
2017-07-21T09:59:27.985Z,40.30
2017-07-21T10:01:55.551Z,40.80
2017-07-21T10:04:23.055Z,40.30
2017-07-21T10:06:50.555Z,40.70
2017-07-21T10:09:18.074Z,39.70
2017-07-21T10:11:45.570Z,41.00
2017-07-21T10:14:13.147Z,41.00
2017-07-21T10:16:41.056Z,40.50
2017-07-21T10:19:09.708Z,40.80
2017-07-21T10:21:37.203Z,40.10
2017-07-21T10:24:04.783Z,40.60
2017-07-21T10:26:32.278Z,37.60
2017-07-21T10:28:59.798Z,37.80
2017-07-21T10:31:27.304Z,38.50
2017-07-21T10:33:55.232Z,38.90
2017-07-21T10:36:22.733Z,36.90
2017-07-21T10:38:50.223Z,38.70
2017-07-21T10:41:18.879Z,38.70
2017-07-21T10:43:47.139Z,39.80
2017-07-21T10:46:15.058Z,40.50
2017-07-21T10:48:42.567Z,42.10
2017-07-21T10:51:10.095Z,41.80
2017-07-21T10:53:38.376Z,43.80
2017-07-21T10:56:06.677Z,45.20
2017-07-21T10:58:34.182Z,45.60
2017-07-21T11:08:29.030Z,46.80
2017-07-21T11:10:57.683Z,46.10
2017-07-21T11:13:25.250Z,47.70
2017-07-21T11:15:53.238Z,46.40
2017-07-21T11:18:21.523Z,47.50
2017-07-21T11:20:49.797Z,47.90
2017-07-21T11:23:18.075Z,47.60
2017-07-21T11:25:45.666Z,46.90
2017-07-21T11:28:13.194Z,46.00
2017-07-21T11:30:41.818Z,46.20
2017-07-21T11:33:09.339Z,47.10
2017-07-21T11:35:36.853Z,46.40
2017-07-21T11:38:04.386Z,45.70
2017-07-21T11:40:32.660Z,45.30
2017-07-21T11:43:00.546Z,44.60
2017-07-21T11:45:29.195Z,45.80
2017-07-21T11:47:56.706Z,45.70
2017-07-21T11:50:24.991Z,45.60
2017-07-21T11:52:52.491Z,46.00
2017-07-21T11:55:20.011Z,45.80
2017-07-21T11:57:47.503Z,45.60
2017-07-21T12:00:15.029Z,45.20
2017-07-21T12:02:42.529Z,46.00
2017-07-21T12:05:10.066Z,45.80
2017-07-21T12:07:38.328Z,45.20
2017-07-21T12:10:05.977Z,45.00
2017-07-21T12:12:33.874Z,45.30
2017-07-21T12:15:01.777Z,46.00
2017-07-21T12:17:29.299Z,44.30
2017-07-21T12:19:57.190Z,44.50
2017-07-21T12:22:24.716Z,44.20
2017-07-21T12:24:52.218Z,43.60
2017-07-21T12:27:20.511Z,43.50
2017-07-21T12:29:48.030Z,44.40
2017-07-21T12:32:15.571Z,44.10
2017-07-21T12:34:43.075Z,44.50
2017-07-21T12:37:10.600Z,44.90
2017-07-21T12:39:38.113Z,44.80
2017-07-21T12:42:05.619Z,42.90
2017-07-21T12:44:33.130Z,42.70
2017-07-21T12:47:00.627Z,43.80
2017-07-21T12:49:28.146Z,42.60
2017-07-21T12:51:55.646Z,43.40
2017-07-21T12:54:23.192Z,42.90
2017-07-21T12:56:50.682Z,42.60
2017-07-21T12:59:18.199Z,42.70
2017-07-21T13:01:46.480Z,42.80
2017-07-21T13:04:13.999Z,42.10
2017-07-21T13:06:41.493Z,42.70
2017-07-21T13:09:09.020Z,42.80
2017-07-21T13:11:37.297Z,42.40
2017-07-21T13:14:05.574Z,43.70
2017-07-21T13:16:33.853Z,43.00
2017-07-21T13:19:02.127Z,43.90
2017-07-21T13:21:30.047Z,43.80
2017-07-21T13:23:58.310Z,41.20
2017-07-21T13:26:25.835Z,43.00
2017-07-21T13:28:53.331Z,42.90
2017-07-21T13:31:21.644Z,43.50
2017-07-21T13:33:49.919Z,43.50
2017-07-21T13:36:18.295Z,44.40
2017-07-21T13:38:45.788Z,43.30
2017-07-21T13:41:14.090Z,44.00
2017-07-21T13:43:41.619Z,43.70
2017-07-21T13:46:09.159Z,43.30
2017-07-21T13:48:37.587Z,43.70
2017-07-21T13:51:05.119Z,43.90
2017-07-21T13:53:32.614Z,44.50
2017-07-21T13:56:00.906Z,45.30
2017-07-21T13:58:28.414Z,44.80
2017-07-21T14:00:55.906Z,45.40
2017-07-21T14:03:24.561Z,45.00
2017-07-21T14:05:52.091Z,44.90
2017-07-21T14:08:19.615Z,45.60
2017-07-21T14:10:47.130Z,46.00
2017-07-21T14:13:14.639Z,46.90
2017-07-21T14:15:42.215Z,47.10
2017-07-21T14:18:10.499Z,47.10
2017-07-21T14:20:37.991Z,47.30
2017-07-21T14:23:05.519Z,47.70
2017-07-21T14:25:33.421Z,47.90
2017-07-21T14:28:01.726Z,48.20
2017-07-21T14:30:29.214Z,48.20
2017-07-21T14:32:58.243Z,48.50
2017-07-21T14:35:26.519Z,48.80
2017-07-21T14:37:54.055Z,49.30
2017-07-21T14:40:21.575Z,49.50
2017-07-21T14:42:49.094Z,49.50
2017-07-21T14:45:16.635Z,49.70
2017-07-21T14:47:44.931Z,49.70
2017-07-21T14:50:12.463Z,50.00
2017-07-21T14:52:41.089Z,50.10
2017-07-21T14:55:08.615Z,50.40
2017-07-21T14:57:36.128Z,50.70
2017-07-21T15:00:04.044Z,51.20
2017-07-21T15:02:31.542Z,52.20
2017-07-21T15:04:59.061Z,52.20
2017-07-21T15:07:27.330Z,53.20
2017-07-21T15:09:54.856Z,53.40
2017-07-21T15:12:23.862Z,53.40
2017-07-21T15:14:51.783Z,53.00
2017-07-21T15:17:19.679Z,53.00
2017-07-21T15:19:47.574Z,52.90
2017-07-21T15:22:16.222Z,53.30
2017-07-21T15:24:44.858Z,53.60
2017-07-21T15:27:12.775Z,52.20
2017-07-21T15:29:40.287Z,52.60
2017-07-21T15:32:07.818Z,52.00
2017-07-21T15:34:35.311Z,51.10
2017-07-21T15:37:02.828Z,51.20
2017-07-21T15:39:30.322Z,51.10
2017-07-21T15:41:57.840Z,50.90
2017-07-21T15:44:26.098Z,51.00
2017-07-21T15:46:54.031Z,51.80
2017-07-21T15:49:21.919Z,52.60
2017-07-21T15:51:49.546Z,51.90
2017-07-21T15:54:17.062Z,51.20
2017-07-21T15:56:45.353Z,49.50
2017-07-21T15:59:14.389Z,51.10
2017-07-21T16:01:41.887Z,50.10
2017-07-21T16:04:09.407Z,50.60
2017-07-21T16:06:36.921Z,50.50
2017-07-21T16:09:04.431Z,50.40
2017-07-21T16:11:31.926Z,50.60
2017-07-21T16:14:00.212Z,50.40
2017-07-21T16:16:27.723Z,50.50
2017-07-21T16:18:55.257Z,51.00
2017-07-21T16:21:23.423Z,50.90
2017-07-21T16:23:51.687Z,51.30
2017-07-21T16:26:19.604Z,51.60
2017-07-21T16:28:47.883Z,52.00
2017-07-21T16:31:16.561Z,52.30
2017-07-21T16:33:45.678Z,52.30
2017-07-21T16:36:13.187Z,51.70
2017-07-21T16:38:40.695Z,51.80
2017-07-21T16:41:08.223Z,51.30
2017-07-21T16:43:35.718Z,51.10
2017-07-21T16:46:03.398Z,51.30
2017-07-21T16:48:30.904Z,51.00
2017-07-21T16:50:58.411Z,51.10
2017-07-21T16:53:27.054Z,50.70
2017-07-21T16:55:54.574Z,50.60
2017-07-21T16:58:22.071Z,51.10
2017-07-21T17:00:49.585Z,51.10
2017-07-21T17:03:17.095Z,51.10
2017-07-21T17:05:45.367Z,52.10
2017-07-21T17:08:13.643Z,51.90
2017-07-21T17:10:41.917Z,52.40
2017-07-21T17:13:10.939Z,52.20
2017-07-21T17:15:38.439Z,52.40
2017-07-21T17:18:05.963Z,52.60
2017-07-21T17:20:33.467Z,52.80
2017-07-21T17:23:00.978Z,53.30
2017-07-21T17:25:28.474Z,53.70
2017-07-21T17:27:56.758Z,54.40
2017-07-21T17:30:25.030Z,53.90
2017-07-21T17:32:53.324Z,53.90
2017-07-21T17:35:21.583Z,54.00
2017-07-21T17:37:49.083Z,54.30
2017-07-21T17:40:17.005Z,54.30
2017-07-21T17:42:44.526Z,54.40
2017-07-21T17:45:12.598Z,54.70
2017-07-21T17:47:40.106Z,55.10
2017-07-21T17:50:08.027Z,55.20
2017-07-21T17:52:35.527Z,55.30
2017-07-21T17:55:03.057Z,55.30
2017-07-21T17:57:30.569Z,55.40
2017-07-21T17:59:58.850Z,55.70
2017-07-21T18:02:26.743Z,55.20
2017-07-21T18:07:23.116Z,54.90
2017-07-21T18:09:50.659Z,55.10
2017-07-21T18:12:18.555Z,54.70
2017-07-21T18:14:46.089Z,54.10
2017-07-21T18:17:13.591Z,53.60
2017-07-21T18:19:41.094Z,53.10
2017-07-21T18:22:09.383Z,52.80
2017-07-21T18:24:36.880Z,52.10
2017-07-21T18:27:04.395Z,51.60
2017-07-21T18:29:31.884Z,51.20
2017-07-21T18:31:59.806Z,51.00
2017-07-21T18:34:28.070Z,51.20
2017-07-21T18:36:56.006Z,51.40
2017-07-21T18:41:53.161Z,51.50
2017-07-21T18:44:20.707Z,52.40
2017-07-21T18:46:48.230Z,53.10
2017-07-21T18:49:15.746Z,53.50
2017-07-21T18:51:43.275Z,54.10
2017-07-21T18:54:10.771Z,54.50
2017-07-21T18:56:38.290Z,54.60
2017-07-21T18:59:05.830Z,55.30
2017-07-21T19:01:34.098Z,54.70
2017-07-21T19:04:01.614Z,55.10
2017-07-21T19:06:29.112Z,54.80
2017-07-21T19:08:56.646Z,53.80
2017-07-21T19:11:24.547Z,53.90
2017-07-21T19:13:52.454Z,53.70
2017-07-21T19:16:19.946Z,53.80
2017-07-21T19:18:47.476Z,53.50
2017-07-21T19:21:14.970Z,52.80
2017-07-21T19:23:43.230Z,53.10
2017-07-21T19:26:10.747Z,53.70
2017-07-21T19:28:38.252Z,53.90
2017-07-21T19:31:05.768Z,54.30
2017-07-21T19:33:33.264Z,54.70
2017-07-21T19:36:00.786Z,54.40
2017-07-21T19:38:28.282Z,54.10
2017-07-21T19:40:56.615Z,54.40
2017-07-21T19:43:24.146Z,54.90
2017-07-21T19:45:52.062Z,54.40
2017-07-21T19:48:19.570Z,54.50
2017-07-21T19:50:47.096Z,54.20
2017-07-21T19:53:15.730Z,54.10
2017-07-21T19:55:43.242Z,54.80
2017-07-21T19:58:11.562Z,55.90
2017-07-21T20:00:39.081Z,55.90
2017-07-21T20:03:06.991Z,56.40
2017-07-21T20:05:34.504Z,56.50
2017-07-21T20:08:02.028Z,56.70
2017-07-21T20:10:29.538Z,57.30
2017-07-21T20:12:57.061Z,57.70
2017-07-21T20:15:25.328Z,58.50
2017-07-21T20:17:54.398Z,58.40
2017-07-21T20:20:22.663Z,59.10
2017-07-21T20:22:51.691Z,59.30
2017-07-21T20:25:20.323Z,59.90
2017-07-21T20:27:47.844Z,60.70
2017-07-21T20:30:15.375Z,60.90
2017-07-21T20:32:43.266Z,62.00
2017-07-21T20:35:10.795Z,62.00
2017-07-21T20:37:38.296Z,62.70
2017-07-21T20:40:05.820Z,63.00
2017-07-21T20:42:33.333Z,63.00
2017-07-21T20:45:00.864Z,63.80
2017-07-21T20:47:28.362Z,63.80
2017-07-21T20:49:56.667Z,64.00
2017-07-21T20:52:24.162Z,64.20
2017-07-21T20:54:51.695Z,64.10
2017-07-21T20:57:19.204Z,64.10
2017-07-21T20:59:47.090Z,63.70
2017-07-21T21:02:15.375Z,63.30
2017-07-21T21:04:42.879Z,63.10
2017-07-21T21:07:10.400Z,62.80
2017-07-21T21:09:37.895Z,62.80
2017-07-21T21:12:05.815Z,62.80
2017-07-21T21:14:33.318Z,63.10
2017-07-21T21:17:00.857Z,63.60
2017-07-21T21:19:28.358Z,63.80
2017-07-21T21:21:55.898Z,63.80
2017-07-21T21:24:23.426Z,64.40
2017-07-21T21:26:50.936Z,64.60
2017-07-21T21:29:18.427Z,64.70
2017-07-21T21:31:46.338Z,64.40
2017-07-21T21:34:13.868Z,64.40
2017-07-21T21:36:42.245Z,65.60
2017-07-21T21:39:09.743Z,64.90
2017-07-21T21:41:37.266Z,64.90
2017-07-21T21:44:05.554Z,65.30
2017-07-21T21:46:33.857Z,65.10
2017-07-21T21:49:01.407Z,64.10
2017-07-21T21:51:28.907Z,63.90
2017-07-21T21:53:57.235Z,63.60
2017-07-21T21:56:24.763Z,63.60
2017-07-21T21:58:52.306Z,63.40
2017-07-21T22:01:19.815Z,63.10
2017-07-21T22:03:48.103Z,63.00
2017-07-21T22:06:15.752Z,62.80
2017-07-21T22:08:43.289Z,62.50
2017-07-21T22:11:11.295Z,62.10
2017-07-21T22:13:38.811Z,62.10
2017-07-21T22:16:06.363Z,62.10
2017-07-21T22:18:34.367Z,61.90
2017-07-21T22:21:01.877Z,61.80
2017-07-21T22:23:30.152Z,61.80
2017-07-21T22:25:57.717Z,61.50
2017-07-21T22:28:25.230Z,61.30
2017-07-21T22:30:52.813Z,61.20
2017-07-21T22:33:20.307Z,61.10
2017-07-21T22:35:48.638Z,61.00
2017-07-21T22:38:16.219Z,60.80
2017-07-21T22:40:43.760Z,60.40
2017-07-21T22:43:11.699Z,60.30
2017-07-21T22:45:39.650Z,60.20
2017-07-21T22:48:07.155Z,60.10
2017-07-21T22:50:34.729Z,59.80
2017-07-21T22:53:02.233Z,59.80
2017-07-21T22:55:29.776Z,59.70
2017-07-21T22:57:57.675Z,59.70
2017-07-21T23:00:25.166Z,59.50
2017-07-21T23:02:52.699Z,59.50
2017-07-21T23:05:20.190Z,59.50
2017-07-21T23:07:47.716Z,59.40
2017-07-21T23:10:15.984Z,59.20
2017-07-21T23:12:45.006Z,59.30
2017-07-21T23:15:12.544Z,59.30
2017-07-21T23:17:40.071Z,59.30
2017-07-21T23:20:07.589Z,59.20
2017-07-21T23:22:35.135Z,59.20
2017-07-21T23:25:02.635Z,59.40
2017-07-21T23:27:30.545Z,59.70
2017-07-21T23:29:58.058Z,60.20
2017-07-21T23:32:26.379Z,60.30
2017-07-21T23:34:54.280Z,60.40
2017-07-21T23:37:22.546Z,62.20
2017-07-21T23:39:50.830Z,61.10
2017-07-21T23:42:19.088Z,62.30
2017-07-21T23:44:47.009Z,62.10
2017-07-21T23:47:15.390Z,62.20
2017-07-21T23:49:43.295Z,61.90
2017-07-21T23:52:10.814Z,61.90
2017-07-21T23:54:38.331Z,62.10
2017-07-21T23:57:05.838Z,62.10
2017-07-21T23:59:33.354Z,61.80
